createdAt,value
2018-04-24T00:00:50.384Z,99.99
2018-04-24T00:01:50.296Z,99.99
2018-04-24T00:02:50.207Z,99.99
2018-04-24T00:03:50.141Z,99.99
2018-04-24T00:04:50.121Z,99.99
2018-04-24T00:05:49.930Z,99.99
2018-04-24T00:06:49.838Z,99.99
2018-04-24T00:07:49.750Z,99.99
2018-04-24T00:08:49.658Z,99.99
2018-04-24T00:09:49.604Z,99.99
2018-04-24T00:10:49.473Z,99.99
2018-04-24T00:11:49.475Z,99.99
2018-04-24T00:12:49.291Z,99.99
2018-04-24T00:13:49.203Z,99.99
2018-04-24T00:14:49.141Z,99.99
2018-04-24T00:15:49.016Z,99.99
2018-04-24T00:16:48.926Z,99.99
2018-04-24T00:17:48.838Z,99.99
2018-04-24T00:18:48.855Z,99.99
2018-04-24T00:19:48.678Z,99.99
2018-04-24T00:20:49.430Z,99.99
2018-04-24T00:21:48.470Z,99.99
2018-04-24T00:22:48.375Z,99.99
2018-04-24T00:23:48.284Z,99.99
2018-04-24T00:24:48.222Z,99.99
2018-04-24T00:25:48.104Z,99.99
2018-04-24T00:26:48.010Z,99.99
2018-04-24T00:27:47.918Z,99.99
2018-04-24T00:28:47.836Z,99.99
2018-04-24T00:29:47.767Z,99.99
2018-04-24T00:30:47.647Z,99.99
2018-04-24T00:31:49.382Z,99.99
2018-04-24T00:32:47.556Z,99.99
2018-04-24T00:33:47.370Z,99.99
2018-04-24T00:34:47.309Z,99.99
2018-04-24T00:35:47.190Z,99.99
2018-04-24T00:36:47.095Z,99.99
2018-04-24T00:37:47.004Z,99.99
2018-04-24T00:38:46.915Z,99.99
2018-04-24T00:39:46.944Z,99.99
2018-04-24T00:40:46.730Z,99.99
2018-04-24T00:41:46.644Z,99.99
2018-04-24T00:42:46.549Z,99.99
2018-04-24T00:43:46.458Z,99.99
2018-04-24T00:44:46.393Z,99.99
2018-04-24T00:45:46.315Z,99.99
2018-04-24T00:46:46.276Z,99.99
2018-04-24T00:47:46.129Z,99.99
2018-04-24T00:48:45.997Z,99.99
2018-04-24T00:49:45.939Z,99.99
2018-04-24T00:50:45.814Z,99.99
2018-04-24T00:51:45.724Z,99.99
2018-04-24T00:52:45.633Z,99.99
2018-04-24T00:53:45.638Z,99.99
2018-04-24T00:54:45.478Z,99.99
2018-04-24T00:55:45.356Z,99.99
2018-04-24T00:56:45.271Z,99.99
2018-04-24T00:57:45.177Z,99.99
2018-04-24T00:58:45.082Z,99.99
2018-04-24T00:59:45.022Z,99.99
2018-04-24T01:00:44.997Z,99.99
2018-04-24T01:01:44.812Z,99.99
2018-04-24T01:02:44.720Z,99.99
2018-04-24T01:03:45.391Z,99.99
2018-04-24T01:04:44.564Z,99.99
2018-04-24T01:05:44.451Z,99.99
2018-04-24T01:06:44.366Z,99.99
2018-04-24T01:07:44.357Z,99.99
2018-04-24T01:08:44.890Z,99.99
2018-04-24T01:09:44.110Z,99.99
2018-04-24T01:10:43.989Z,99.99
2018-04-24T01:11:43.900Z,99.99
2018-04-24T01:12:43.807Z,99.99
2018-04-24T01:13:43.719Z,99.99
2018-04-24T01:14:43.631Z,99.99
2018-04-24T01:15:43.565Z,99.99
2018-04-24T01:16:43.450Z,99.99
2018-04-24T01:17:43.352Z,99.99
2018-04-24T01:18:43.262Z,99.99
2018-04-24T01:19:43.186Z,99.99
2018-04-24T01:20:43.108Z,99.99
2018-04-24T01:21:42.991Z,99.99
2018-04-24T01:22:42.899Z,99.99
2018-04-24T01:23:42.806Z,99.99
2018-04-24T01:24:42.720Z,99.99
2018-04-24T01:25:42.655Z,99.99
2018-04-24T01:26:42.536Z,99.99
2018-04-24T01:27:42.458Z,99.99
2018-04-24T01:28:42.355Z,99.99
2018-04-24T01:29:42.264Z,99.99
2018-04-24T01:30:42.896Z,99.99
2018-04-24T01:31:42.084Z,99.99
2018-04-24T01:32:41.994Z,99.99
2018-04-24T01:33:41.900Z,99.99
2018-04-24T01:34:41.811Z,99.99
2018-04-24T01:35:41.757Z,99.99
2018-04-24T01:36:41.633Z,99.99
2018-04-24T01:37:41.538Z,99.99
2018-04-24T01:38:41.448Z,99.99
2018-04-24T01:39:41.393Z,99.99
2018-04-24T01:40:41.308Z,99.99
2018-04-24T01:41:41.183Z,99.99
2018-04-24T01:42:41.083Z,99.99
2018-04-24T01:43:40.998Z,99.99
2018-04-24T01:44:40.904Z,99.99
2018-04-24T01:45:40.843Z,99.99
2018-04-24T01:46:40.724Z,99.99
2018-04-24T01:47:40.629Z,99.99
2018-04-24T01:48:40.540Z,99.99
2018-04-24T01:49:40.450Z,99.99
2018-04-24T01:50:40.401Z,99.99
2018-04-24T01:51:40.268Z,99.99
2018-04-24T01:52:40.176Z,99.99
2018-04-24T01:53:40.085Z,99.99
2018-04-24T01:54:39.998Z,99.99
2018-04-24T01:55:39.937Z,99.99
2018-04-24T01:56:39.817Z,99.99
2018-04-24T01:57:39.722Z,99.99
2018-04-24T01:58:39.630Z,99.99
2018-04-24T01:59:41.403Z,99.99
2018-04-24T02:00:39.476Z,99.99
2018-04-24T02:01:39.359Z,99.99
2018-04-24T02:02:39.390Z,99.99
2018-04-24T02:03:40.903Z,99.99
2018-04-24T02:04:39.087Z,99.99
2018-04-24T02:05:39.023Z,99.99
2018-04-24T02:06:38.907Z,99.99
2018-04-24T02:07:38.810Z,99.99
2018-04-24T02:08:38.723Z,99.99
2018-04-24T02:09:38.631Z,99.99
2018-04-24T02:10:38.570Z,99.99
2018-04-24T02:11:38.450Z,99.99
2018-04-24T02:12:38.357Z,99.99
2018-04-24T02:13:38.268Z,99.99
2018-04-24T02:14:38.178Z,99.99
2018-04-24T02:15:38.113Z,99.99
2018-04-24T02:16:37.991Z,99.99
2018-04-24T02:17:37.903Z,99.99
2018-04-24T02:18:37.811Z,99.99
2018-04-24T02:19:37.717Z,99.99
2018-04-24T02:20:37.634Z,99.99
2018-04-24T02:21:37.595Z,99.99
2018-04-24T02:22:37.450Z,99.99
2018-04-24T02:23:37.357Z,99.99
2018-04-24T02:24:37.268Z,99.99
2018-04-24T02:25:37.174Z,99.99
2018-04-24T02:26:37.112Z,99.99
2018-04-24T02:27:36.996Z,99.99
2018-04-24T02:28:36.898Z,99.99
2018-04-24T02:29:36.811Z,99.99
2018-04-24T02:30:36.729Z,99.99
2018-04-24T02:31:36.656Z,99.99
2018-04-24T02:32:36.535Z,99.99
2018-04-24T02:33:36.447Z,99.99
2018-04-24T02:34:36.356Z,99.99
2018-04-24T02:35:36.266Z,99.99
2018-04-24T02:36:36.203Z,99.99
2018-04-24T02:37:36.082Z,99.99
2018-04-24T02:38:35.990Z,99.99
2018-04-24T02:39:35.897Z,99.99
2018-04-24T02:40:35.807Z,99.99
2018-04-24T02:41:35.750Z,99.99
2018-04-24T02:42:35.627Z,99.99
2018-04-24T02:43:35.535Z,99.99
2018-04-24T02:44:35.446Z,99.99
2018-04-24T02:45:35.351Z,99.99
2018-04-24T02:46:35.291Z,99.99
2018-04-24T02:47:35.170Z,99.99
2018-04-24T02:48:35.078Z,99.99
2018-04-24T02:49:34.991Z,99.99
2018-04-24T02:50:34.906Z,99.99
2018-04-24T02:51:34.836Z,99.99
2018-04-24T02:52:34.719Z,99.99
2018-04-24T02:53:34.627Z,99.99
2018-04-24T02:54:34.534Z,99.99
2018-04-24T02:55:34.442Z,99.99
2018-04-24T02:56:34.382Z,99.99
2018-04-24T02:57:34.266Z,99.99
2018-04-24T02:58:34.170Z,99.99
2018-04-24T02:59:34.079Z,99.99
2018-04-24T03:00:33.986Z,99.99
2018-04-24T03:01:33.929Z,99.99
2018-04-24T03:02:33.802Z,99.99
2018-04-24T03:03:33.714Z,99.99
2018-04-24T03:04:33.623Z,99.99
2018-04-24T03:05:33.531Z,99.99
2018-04-24T03:06:33.469Z,99.99
2018-04-24T03:07:33.352Z,99.99
2018-04-24T03:08:33.257Z,99.99
2018-04-24T03:09:33.169Z,99.99
2018-04-24T03:10:33.078Z,99.99
2018-04-24T03:11:33.018Z,99.99
2018-04-24T03:12:32.893Z,99.99
2018-04-24T03:13:32.803Z,99.99
2018-04-24T03:14:32.711Z,99.99
2018-04-24T03:15:32.619Z,99.99
2018-04-24T03:16:32.556Z,99.99
2018-04-24T03:17:32.439Z,99.99
2018-04-24T03:18:32.350Z,99.99
2018-04-24T03:19:32.257Z,99.99
2018-04-24T03:20:32.447Z,99.99
2018-04-24T03:21:32.102Z,99.99
2018-04-24T03:22:31.986Z,99.99
2018-04-24T03:23:31.891Z,99.99
2018-04-24T03:24:31.800Z,99.99
2018-04-24T03:25:31.708Z,99.99
2018-04-24T03:26:31.646Z,99.99
2018-04-24T03:27:31.623Z,99.99
2018-04-24T03:28:31.434Z,99.99
2018-04-24T03:29:31.344Z,99.99
2018-04-24T03:30:31.252Z,99.99
2018-04-24T03:31:31.188Z,99.99
2018-04-24T03:32:31.071Z,99.99
2018-04-24T03:33:30.993Z,99.99
2018-04-24T03:34:30.978Z,99.99
2018-04-24T03:35:30.796Z,99.99
2018-04-24T03:36:30.707Z,99.99
2018-04-24T03:37:30.639Z,99.99
2018-04-24T03:38:30.522Z,99.99
2018-04-24T03:39:30.430Z,99.99
2018-04-24T03:40:30.335Z,99.99
2018-04-24T03:41:30.344Z,99.99
2018-04-24T03:42:30.186Z,99.99
2018-04-24T03:43:30.063Z,99.99
2018-04-24T03:44:29.971Z,99.99
2018-04-24T03:45:29.879Z,99.99
2018-04-24T03:46:29.795Z,99.99
2018-04-24T03:47:29.728Z,99.99
2018-04-24T03:48:29.701Z,99.99
2018-04-24T03:49:29.514Z,99.99
2018-04-24T03:50:29.421Z,99.99
2018-04-24T03:51:29.331Z,99.99
2018-04-24T03:52:29.270Z,99.99
2018-04-24T03:53:29.147Z,99.99
2018-04-24T03:54:29.053Z,99.99
2018-04-24T03:55:29.057Z,99.99
2018-04-24T03:56:28.872Z,99.99
2018-04-24T03:57:28.810Z,99.99
2018-04-24T03:58:28.688Z,99.99
2018-04-24T03:59:28.600Z,99.99
2018-04-24T04:00:28.505Z,99.99
2018-04-24T04:01:28.415Z,99.99
2018-04-24T04:02:28.449Z,99.99
2018-04-24T04:03:28.228Z,99.99
2018-04-24T04:04:28.138Z,99.99
2018-04-24T04:05:28.047Z,99.99
2018-04-24T04:06:27.954Z,99.99
2018-04-24T04:07:27.890Z,99.99
2018-04-24T04:08:27.769Z,99.99
2018-04-24T04:09:27.776Z,99.99
2018-04-24T04:10:27.586Z,99.99
2018-04-24T04:11:27.495Z,99.99
2018-04-24T04:12:27.433Z,99.99
2018-04-24T04:13:27.310Z,99.99
2018-04-24T04:14:27.215Z,99.99
2018-04-24T04:15:27.125Z,99.99
2018-04-24T04:16:27.142Z,99.99
2018-04-24T04:17:26.973Z,99.99
2018-04-24T04:18:26.852Z,99.99
2018-04-24T04:19:26.758Z,99.99
2018-04-24T04:20:26.669Z,99.99
2018-04-24T04:21:26.576Z,99.99
2018-04-24T04:22:26.577Z,99.99
2018-04-24T04:23:26.392Z,99.99
2018-04-24T04:24:26.300Z,99.99
2018-04-24T04:25:26.212Z,99.99
2018-04-24T04:26:26.116Z,99.99
2018-04-24T04:27:26.026Z,99.99
2018-04-24T04:28:25.963Z,99.99
2018-04-24T04:29:25.840Z,99.99
2018-04-24T04:30:25.748Z,99.99
2018-04-24T04:31:25.659Z,99.99
2018-04-24T04:32:25.568Z,99.99
2018-04-24T04:33:25.505Z,99.99
2018-04-24T04:34:25.383Z,99.99
2018-04-24T04:35:25.288Z,99.99
2018-04-24T04:36:25.216Z,99.99
2018-04-24T04:37:25.108Z,99.99
2018-04-24T04:38:25.048Z,99.99
2018-04-24T04:39:24.935Z,99.99
2018-04-24T04:40:24.832Z,99.99
2018-04-24T04:41:24.818Z,99.99
2018-04-24T04:42:24.648Z,99.99
2018-04-24T04:43:24.589Z,99.99
2018-04-24T04:44:24.464Z,99.99
2018-04-24T04:45:24.375Z,99.99
2018-04-24T04:46:24.281Z,99.99
2018-04-24T04:47:24.189Z,99.99
2018-04-24T04:48:24.126Z,99.99
2018-04-24T04:49:24.007Z,99.99
2018-04-24T04:50:23.912Z,99.99
2018-04-24T04:51:23.822Z,99.99
2018-04-24T04:52:23.730Z,99.99
2018-04-24T04:53:23.667Z,99.99
2018-04-24T04:54:23.547Z,99.99
2018-04-24T04:55:23.453Z,99.99
2018-04-24T04:56:23.362Z,99.99
2018-04-24T04:57:23.274Z,99.99
2018-04-24T04:58:23.207Z,99.99
2018-04-24T04:59:23.090Z,99.99
2018-04-24T05:00:22.996Z,99.99
2018-04-24T05:01:22.904Z,99.99
2018-04-24T05:02:22.812Z,99.99
2018-04-24T05:03:22.752Z,99.99
2018-04-24T05:04:22.628Z,99.99
2018-04-24T05:05:22.538Z,99.99
2018-04-24T05:06:22.445Z,99.99
2018-04-24T05:07:22.355Z,99.99
2018-04-24T05:08:22.296Z,99.99
2018-04-24T05:09:22.173Z,99.99
2018-04-24T05:10:22.078Z,99.99
2018-04-24T05:11:21.987Z,99.99
2018-04-24T05:12:21.896Z,99.99
2018-04-24T05:13:21.836Z,99.99
2018-04-24T05:14:21.715Z,99.99
2018-04-24T05:15:21.624Z,99.99
2018-04-24T05:16:21.532Z,99.99
2018-04-24T05:17:21.993Z,99.99
2018-04-24T05:18:21.485Z,99.99
2018-04-24T05:19:21.258Z,99.99
2018-04-24T05:20:21.169Z,99.99
2018-04-24T05:21:21.077Z,99.99
2018-04-24T05:22:20.984Z,99.99
2018-04-24T05:23:20.928Z,99.99
2018-04-24T05:24:20.807Z,99.99
2018-04-24T05:25:20.714Z,99.99
2018-04-24T05:26:20.622Z,99.99
2018-04-24T05:27:20.530Z,99.99
2018-04-24T05:28:20.490Z,99.99
2018-04-24T05:29:20.351Z,99.99
2018-04-24T05:30:20.258Z,99.99
2018-04-24T05:31:20.164Z,99.99
2018-04-24T05:32:20.175Z,99.99
2018-04-24T05:33:19.987Z,99.99
2018-04-24T05:34:19.924Z,99.99
2018-04-24T05:35:19.809Z,99.99
2018-04-24T05:36:19.715Z,99.99
2018-04-24T05:37:19.624Z,99.99
2018-04-24T05:38:19.539Z,99.99
2018-04-24T05:39:19.470Z,99.99
2018-04-24T05:40:19.351Z,99.99
2018-04-24T05:41:19.262Z,99.99
2018-04-24T05:42:19.170Z,99.99
2018-04-24T05:43:19.085Z,99.99
2018-04-24T05:44:19.022Z,99.99
2018-04-24T05:45:18.913Z,99.99
2018-04-24T05:46:18.898Z,99.99
2018-04-24T05:47:18.717Z,99.99
2018-04-24T05:48:18.625Z,99.99
2018-04-24T05:49:18.570Z,99.99
2018-04-24T05:50:18.448Z,99.99
2018-04-24T05:51:19.001Z,99.99
2018-04-24T05:52:19.109Z,99.99
2018-04-24T05:53:18.273Z,99.99
2018-04-24T05:54:18.116Z,99.99
2018-04-24T05:55:17.999Z,99.99
2018-04-24T05:56:17.909Z,99.99
2018-04-24T05:57:17.817Z,99.99
2018-04-24T05:58:17.728Z,99.99
2018-04-24T05:59:17.663Z,99.99
2018-04-24T06:00:17.641Z,99.99
2018-04-24T06:01:17.457Z,99.99
2018-04-24T06:02:17.364Z,99.99
2018-04-24T06:03:17.276Z,99.99
2018-04-24T06:04:17.262Z,99.99
2018-04-24T06:05:17.096Z,99.99
2018-04-24T06:06:17.007Z,99.99
2018-04-24T06:07:17.007Z,99.99
2018-04-24T06:08:16.827Z,99.99
2018-04-24T06:09:16.771Z,99.99
2018-04-24T06:10:16.645Z,99.99
2018-04-24T06:11:16.559Z,99.99
2018-04-24T06:12:16.469Z,99.99
2018-04-24T06:13:16.378Z,99.99
2018-04-24T06:14:16.991Z,99.99
2018-04-24T06:15:16.197Z,99.99
2018-04-24T06:16:16.109Z,99.99
2018-04-24T06:17:16.020Z,99.99
2018-04-24T06:18:15.930Z,99.99
2018-04-24T06:19:15.872Z,99.99
2018-04-24T06:20:15.750Z,99.99
2018-04-24T06:21:15.790Z,99.99
2018-04-24T06:22:15.573Z,99.99
2018-04-24T06:23:15.485Z,99.99
2018-04-24T06:24:15.426Z,99.99
2018-04-24T06:25:15.306Z,99.99
2018-04-24T06:26:15.219Z,99.99
2018-04-24T06:27:15.134Z,99.99
2018-04-24T06:28:15.136Z,99.99
2018-04-24T06:29:14.985Z,99.99
2018-04-24T06:30:15.514Z,99.99
2018-04-24T06:31:14.775Z,99.99
2018-04-24T06:32:14.687Z,99.99
2018-04-24T06:33:14.601Z,99.99
2018-04-24T06:34:14.542Z,99.99
2018-04-24T06:35:14.514Z,99.99
2018-04-24T06:36:14.335Z,99.99
2018-04-24T06:37:14.250Z,99.99
2018-04-24T06:38:14.160Z,99.99
2018-04-24T06:39:14.103Z,99.99
2018-04-24T06:40:13.985Z,99.99
2018-04-24T06:41:13.896Z,99.99
2018-04-24T06:42:13.938Z,99.99
2018-04-24T06:43:13.721Z,99.99
2018-04-24T06:44:13.637Z,99.99
2018-04-24T06:45:13.578Z,99.99
2018-04-24T06:46:13.463Z,99.99
2018-04-24T06:47:13.370Z,99.99
2018-04-24T06:48:13.282Z,99.99
2018-04-24T06:49:13.295Z,99.99
2018-04-24T06:50:13.139Z,99.99
2018-04-24T06:51:13.020Z,99.99
2018-04-24T06:52:13.517Z,99.99
2018-04-24T06:53:12.847Z,99.99
2018-04-24T06:54:12.763Z,99.99
2018-04-24T06:55:12.798Z,99.99
2018-04-24T06:56:12.588Z,99.99
2018-04-24T06:57:12.503Z,99.99
2018-04-24T06:58:12.415Z,99.99
2018-04-24T06:59:12.330Z,99.99
2018-04-24T07:00:12.272Z,99.99
2018-04-24T07:01:12.155Z,99.99
2018-04-24T07:02:12.067Z,99.99
2018-04-24T07:03:12.002Z,99.99
2018-04-24T07:04:11.898Z,99.99
2018-04-24T07:05:11.840Z,99.99
2018-04-24T07:06:11.726Z,99.91
2018-04-24T07:07:11.642Z,98.96
2018-04-24T07:08:11.555Z,99.99
2018-04-24T07:09:11.469Z,99.73
2018-04-24T07:10:11.418Z,98.62
2018-04-24T07:11:11.298Z,97.76
2018-04-24T07:12:11.216Z,98.77
2018-04-24T07:13:11.142Z,98.96
2018-04-24T07:14:11.064Z,99.01
2018-04-24T07:15:10.991Z,99.58
2018-04-24T07:16:10.878Z,98.62
2018-04-24T07:17:10.790Z,97.56
2018-04-24T07:18:10.710Z,97.81
2018-04-24T07:19:10.634Z,97.19
2018-04-24T07:20:11.975Z,92.48
2018-04-24T07:21:10.449Z,92.86
2018-04-24T07:22:10.391Z,95.55
2018-04-24T07:23:10.383Z,94.98
2018-04-24T07:24:10.201Z,95.03
2018-04-24T07:25:10.147Z,95.21
2018-04-24T07:26:10.029Z,95.17
2018-04-24T07:27:09.962Z,95.31
2018-04-24T07:28:09.864Z,95.94
2018-04-24T07:29:09.779Z,93.15
2018-04-24T07:30:09.729Z,93.63
2018-04-24T07:31:09.611Z,90.37
2018-04-24T07:32:09.528Z,92.00
2018-04-24T07:33:09.443Z,95.84
2018-04-24T07:34:09.357Z,95.79
2018-04-24T07:35:09.307Z,95.07
2018-04-24T07:36:09.193Z,94.54
2018-04-24T07:37:09.112Z,93.82
2018-04-24T07:38:09.024Z,93.39
2018-04-24T07:39:08.941Z,92.29
2018-04-24T07:40:08.890Z,94.54
2018-04-24T07:41:08.855Z,91.90
2018-04-24T07:42:08.691Z,91.23
2018-04-24T07:43:08.604Z,94.26
2018-04-24T07:44:09.982Z,92.82
2018-04-24T07:45:08.468Z,92.77
2018-04-24T07:46:08.351Z,94.17
2018-04-24T07:47:08.283Z,95.41
2018-04-24T07:48:08.187Z,98.62
2018-04-24T07:49:08.109Z,99.82
2018-04-24T07:50:08.049Z,98.81
2018-04-24T07:51:07.936Z,99.82
2018-04-24T07:52:07.851Z,99.99
2018-04-24T07:53:07.775Z,99.53
2018-04-24T07:54:07.685Z,99.99
2018-04-24T07:55:07.601Z,99.87
2018-04-24T07:56:07.545Z,99.99
2018-04-24T07:57:07.428Z,98.33
2018-04-24T07:58:07.455Z,97.71
2018-04-24T07:59:07.260Z,96.32
2018-04-24T08:00:07.177Z,95.75
2018-04-24T08:01:07.123Z,94.59
2018-04-24T08:02:07.008Z,93.15
2018-04-24T08:03:06.922Z,92.68
2018-04-24T08:04:06.841Z,93.73
2018-04-24T08:05:06.755Z,94.26
2018-04-24T08:06:06.701Z,96.47
2018-04-24T08:07:06.591Z,97.23
2018-04-24T08:08:06.503Z,97.18
2018-04-24T08:09:06.437Z,95.17
2018-04-24T08:10:06.332Z,96.66
2018-04-24T08:11:06.274Z,96.75
2018-04-24T08:12:06.257Z,97.14
2018-04-24T08:13:06.077Z,97.42
2018-04-24T08:14:05.995Z,97.28
2018-04-24T08:15:05.907Z,98.52
2018-04-24T08:16:05.854Z,99.19
2018-04-24T08:17:05.739Z,99.48
2018-04-24T08:18:05.650Z,98.76
2018-04-24T08:19:05.659Z,99.62
2018-04-24T08:20:05.481Z,99.99
2018-04-24T08:21:05.432Z,98.66
2018-04-24T08:22:05.309Z,98.52
2018-04-24T08:23:05.223Z,98.33
2018-04-24T08:24:05.137Z,97.14
2018-04-24T08:25:06.996Z,96.42
2018-04-24T08:26:04.994Z,95.70
2018-04-24T08:27:04.887Z,94.59
2018-04-24T08:28:04.797Z,95.22
2018-04-24T08:29:04.711Z,93.26
2018-04-24T08:30:04.627Z,94.26
2018-04-24T08:31:04.576Z,90.08
2018-04-24T08:32:04.457Z,89.26
2018-04-24T08:33:04.370Z,89.55
2018-04-24T08:34:04.282Z,87.19
2018-04-24T08:35:04.198Z,86.33
2018-04-24T08:36:04.190Z,83.49
2018-04-24T08:37:04.026Z,80.76
2018-04-24T08:38:03.942Z,81.53
2018-04-24T08:39:03.939Z,81.57
2018-04-24T08:40:03.835Z,80.71
2018-04-24T08:41:03.716Z,81.57
2018-04-24T08:42:03.600Z,82.15
2018-04-24T08:43:03.518Z,81.99
2018-04-24T08:44:03.433Z,79.44
2018-04-24T08:45:03.352Z,77.81
2018-04-24T08:46:03.292Z,73.99
2018-04-24T08:47:03.179Z,74.54
2018-04-24T08:48:03.095Z,73.88
2018-04-24T08:49:03.011Z,75.00
2018-04-24T08:50:02.928Z,75.48
2018-04-24T08:51:02.876Z,78.36
2018-04-24T08:52:02.757Z,78.94
2018-04-24T08:53:02.679Z,78.17
2018-04-24T08:54:02.595Z,78.90
2018-04-24T08:55:04.014Z,78.23
2018-04-24T08:56:02.454Z,76.46
2018-04-24T08:57:02.341Z,79.28
2018-04-24T08:58:02.259Z,78.42
2018-04-24T08:59:02.173Z,80.78
2018-04-24T09:00:03.062Z,81.51
2018-04-24T09:01:02.035Z,83.42
2018-04-24T09:02:01.996Z,83.19
2018-04-24T09:03:01.836Z,84.91
2018-04-24T09:04:01.751Z,86.16
2018-04-24T09:05:01.664Z,84.05
2018-04-24T09:06:01.610Z,81.18
2018-04-24T09:07:01.496Z,80.93
2018-04-24T09:08:01.502Z,80.78
2018-04-24T09:09:01.329Z,78.61
2018-04-24T09:10:01.243Z,79.86
2018-04-24T09:11:01.190Z,76.84
2018-04-24T09:12:01.077Z,76.40
2018-04-24T09:13:00.991Z,75.77
2018-04-24T09:14:00.911Z,76.57
2018-04-24T09:15:00.818Z,74.55
2018-04-24T09:16:00.742Z,72.96
2018-04-24T09:17:00.680Z,70.56
2018-04-24T09:18:00.571Z,69.98
2018-04-24T09:19:00.481Z,68.63
2018-04-24T09:20:00.401Z,70.75
2018-04-24T09:21:00.315Z,68.57
2018-04-24T09:22:00.258Z,68.70
2018-04-24T09:23:00.152Z,70.24
2018-04-24T09:24:00.060Z,67.74
2018-04-24T09:24:59.975Z,67.58
2018-04-24T09:25:59.896Z,66.01
2018-04-24T09:26:59.842Z,67.19
2018-04-24T09:28:00.609Z,64.59
2018-04-24T09:28:59.735Z,66.46
2018-04-24T09:29:59.558Z,65.78
2018-04-24T09:30:59.475Z,67.29
2018-04-24T09:31:59.421Z,67.22
2018-04-24T09:32:59.308Z,68.48
2018-04-24T09:33:59.228Z,67.80
2018-04-24T09:34:59.142Z,68.03
2018-04-24T09:35:59.164Z,65.91
2018-04-24T09:36:59.016Z,65.56
2018-04-24T09:37:58.896Z,67.35
2018-04-24T09:38:58.813Z,70.58
2018-04-24T09:39:58.729Z,69.91
2018-04-24T09:40:58.645Z,70.29
2018-04-24T09:41:58.591Z,68.37
2018-04-24T09:42:58.480Z,68.18
2018-04-24T09:43:58.408Z,67.45
2018-04-24T09:44:58.316Z,68.66
2018-04-24T09:45:58.323Z,70.62
2018-04-24T09:46:58.175Z,66.68
2018-04-24T09:47:58.063Z,65.40
2018-04-24T09:48:57.997Z,65.72
2018-04-24T09:49:57.898Z,65.91
2018-04-24T09:50:57.815Z,66.97
2018-04-24T09:51:57.759Z,67.74
2018-04-24T09:52:57.648Z,67.70
2018-04-24T09:53:57.568Z,67.64
2018-04-24T09:54:57.485Z,67.74
2018-04-24T09:55:57.401Z,66.91
2018-04-24T09:56:57.348Z,67.83
2018-04-24T09:57:57.232Z,68.06
2018-04-24T09:58:57.150Z,66.23
2018-04-24T09:59:57.067Z,67.45
2018-04-24T10:00:56.994Z,65.14
2018-04-24T10:01:56.933Z,65.46
2018-04-24T10:02:56.821Z,65.75
2018-04-24T10:03:56.736Z,63.95
2018-04-24T10:04:56.653Z,62.51
2018-04-24T10:05:56.567Z,63.15
2018-04-24T10:06:56.520Z,62.80
2018-04-24T10:07:56.405Z,65.23
2018-04-24T10:08:56.322Z,67.99
2018-04-24T10:09:56.237Z,66.77
2018-04-24T10:10:56.157Z,67.13
2018-04-24T10:11:56.107Z,67.80
2018-04-24T10:12:55.991Z,65.20
2018-04-24T10:13:55.907Z,69.18
2018-04-24T10:14:55.827Z,70.94
2018-04-24T10:15:55.745Z,68.41
2018-04-24T10:16:55.691Z,66.04
2018-04-24T10:17:55.576Z,66.42
2018-04-24T10:18:55.493Z,67.29
2018-04-24T10:19:55.413Z,64.08
2018-04-24T10:20:55.332Z,63.09
2018-04-24T10:21:55.248Z,62.87
2018-04-24T10:22:55.193Z,63.28
2018-04-24T10:23:55.080Z,63.73
2018-04-24T10:24:55.000Z,64.02
2018-04-24T10:25:54.916Z,64.15
2018-04-24T10:26:54.835Z,63.60
2018-04-24T10:27:54.781Z,62.87
2018-04-24T10:28:54.668Z,62.19
2018-04-24T10:29:54.588Z,60.17
2018-04-24T10:30:54.507Z,59.91
2018-04-24T10:31:54.421Z,62.99
2018-04-24T10:32:54.375Z,64.40
2018-04-24T10:33:54.256Z,63.44
2018-04-24T10:34:54.178Z,59.97
2018-04-24T10:35:54.090Z,62.13
2018-04-24T10:36:54.014Z,61.58
2018-04-24T10:37:53.957Z,61.80
2018-04-24T10:38:53.847Z,64.02
2018-04-24T10:39:53.764Z,61.61
2018-04-24T10:40:53.680Z,62.12
2018-04-24T10:41:53.599Z,61.77
2018-04-24T10:42:53.554Z,60.71
2018-04-24T10:43:53.522Z,64.56
2018-04-24T10:44:53.354Z,62.32
2018-04-24T10:45:53.274Z,62.90
2018-04-24T10:46:53.191Z,61.04
2018-04-24T10:47:53.141Z,60.39
2018-04-24T10:48:53.026Z,62.26
2018-04-24T10:49:52.947Z,64.43
2018-04-24T10:50:52.863Z,64.12
2018-04-24T10:51:52.784Z,65.46
2018-04-24T10:52:52.733Z,65.46
2018-04-24T10:53:52.622Z,66.58
2018-04-24T10:54:52.540Z,66.42
2018-04-24T10:55:52.521Z,67.35
2018-04-24T10:56:52.377Z,67.45
2018-04-24T10:57:52.323Z,62.10
2018-04-24T10:58:52.316Z,61.97
2018-04-24T10:59:52.127Z,59.99
2018-04-24T11:00:52.044Z,63.67
2018-04-24T11:01:51.964Z,65.59
2018-04-24T11:02:51.911Z,64.72
2018-04-24T11:03:51.799Z,65.43
2018-04-24T11:04:51.717Z,65.69
2018-04-24T11:05:51.727Z,66.30
2018-04-24T11:06:51.550Z,65.56
2018-04-24T11:07:51.503Z,64.69
2018-04-24T11:08:51.384Z,63.38
2018-04-24T11:09:51.298Z,63.89
2018-04-24T11:10:51.217Z,65.14
2018-04-24T11:11:51.197Z,62.48
2018-04-24T11:12:51.178Z,60.46
2018-04-24T11:13:51.005Z,61.13
2018-04-24T11:14:50.887Z,61.00
2018-04-24T11:15:50.803Z,60.91
2018-04-24T11:16:50.718Z,62.16
2018-04-24T11:17:50.664Z,62.00
2018-04-24T11:18:50.554Z,59.01
2018-04-24T11:19:50.565Z,57.12
2018-04-24T11:20:50.388Z,55.77
2018-04-24T11:21:50.306Z,56.70
2018-04-24T11:22:50.255Z,57.76
2018-04-24T11:23:50.146Z,58.72
2018-04-24T11:24:50.061Z,58.85
2018-04-24T11:25:49.976Z,58.62
2018-04-24T11:26:50.039Z,58.04
2018-04-24T11:27:49.848Z,54.98
2018-04-24T11:28:49.732Z,57.49
2018-04-24T11:29:49.652Z,56.52
2018-04-24T11:30:49.568Z,54.98
2018-04-24T11:31:49.491Z,55.27
2018-04-24T11:32:49.407Z,53.73
2018-04-24T11:33:49.446Z,55.92
2018-04-24T11:34:49.244Z,57.05
2018-04-24T11:35:49.159Z,55.70
2018-04-24T11:36:49.081Z,54.71
2018-04-24T11:37:48.998Z,55.38
2018-04-24T11:38:48.947Z,53.45
2018-04-24T11:39:48.834Z,55.65
2018-04-24T11:40:48.848Z,55.81
2018-04-24T11:41:48.675Z,56.67
2018-04-24T11:42:49.110Z,59.37
2018-04-24T11:43:48.541Z,58.89
2018-04-24T11:44:48.437Z,58.40
2018-04-24T11:45:48.347Z,56.54
2018-04-24T11:46:48.266Z,54.90
2018-04-24T11:47:49.065Z,54.97
2018-04-24T11:48:48.135Z,55.57
2018-04-24T11:49:48.021Z,54.83
2018-04-24T11:50:47.942Z,55.15
2018-04-24T11:51:47.858Z,56.72
2018-04-24T11:52:47.776Z,54.57
2018-04-24T11:53:47.720Z,52.93
2018-04-24T11:54:47.706Z,55.29
2018-04-24T11:55:47.532Z,57.02
2018-04-24T11:56:47.456Z,56.73
2018-04-24T11:57:47.369Z,57.76
2018-04-24T11:58:47.322Z,57.45
2018-04-24T11:59:47.207Z,57.64
2018-04-24T12:00:47.126Z,60.36
2018-04-24T12:01:47.136Z,58.75
2018-04-24T12:02:47.011Z,58.97
2018-04-24T12:03:46.909Z,56.85
2018-04-24T12:04:46.813Z,56.85
2018-04-24T12:05:46.716Z,54.69
2018-04-24T12:06:46.635Z,55.01
2018-04-24T12:07:46.555Z,53.78
2018-04-24T12:08:46.506Z,53.39
2018-04-24T12:09:46.390Z,52.73
2018-04-24T12:10:46.322Z,54.57
2018-04-24T12:11:46.233Z,54.66
2018-04-24T12:12:46.147Z,56.66
2018-04-24T12:13:46.095Z,57.92
2018-04-24T12:14:45.987Z,55.92
2018-04-24T12:15:45.992Z,53.96
2018-04-24T12:16:45.824Z,53.39
2018-04-24T12:17:45.743Z,56.98
2018-04-24T12:18:45.691Z,55.48
2018-04-24T12:19:45.581Z,55.96
2018-04-24T12:20:45.502Z,57.37
2018-04-24T12:21:45.420Z,58.98
2018-04-24T12:22:45.464Z,56.29
2018-04-24T12:23:45.286Z,56.00
2018-04-24T12:24:45.184Z,56.51
2018-04-24T12:25:45.101Z,55.38
2018-04-24T12:26:45.016Z,54.93
2018-04-24T12:27:44.937Z,52.49
2018-04-24T12:28:44.880Z,53.62
2018-04-24T12:29:44.771Z,55.26
2018-04-24T12:30:44.688Z,56.55
2018-04-24T12:31:44.609Z,56.38
2018-04-24T12:32:44.525Z,55.55
2018-04-24T12:33:44.475Z,55.45
2018-04-24T12:34:44.365Z,55.31
2018-04-24T12:35:44.282Z,55.09
2018-04-24T12:36:44.200Z,54.83
2018-04-24T12:37:44.118Z,53.74
2018-04-24T12:38:44.039Z,54.03
2018-04-24T12:39:43.985Z,55.79
2018-04-24T12:40:44.641Z,57.65
2018-04-24T12:41:43.793Z,55.70
2018-04-24T12:42:43.715Z,58.01
2018-04-24T12:43:43.632Z,58.34
2018-04-24T12:44:43.579Z,58.65
2018-04-24T12:45:43.463Z,56.63
2018-04-24T12:46:43.383Z,54.52
2018-04-24T12:47:43.304Z,57.50
2018-04-24T12:48:43.222Z,56.57
2018-04-24T12:49:43.169Z,54.93
2018-04-24T12:50:43.057Z,53.43
2018-04-24T12:51:43.061Z,53.40